Pagrindinis puslapis
METAR-TAF:

METAR-TAF

Oro uostai :

Fritzlar, Vokietija

platuma: 51-07N, ilguma: 009-17E, Aukštis: 172 m

Dabartinis oras

Ataskaita buvo paskelbta 1 valandą ir 10 minutes, ne 08:20 UTC
Vėjas 1 kt iš Pietryčių
Temperatūra 8°C
Drėgmė 76%
Slėgis 1030 hPa
Matomumas 10 km arba daugiau
Su prošvaistėmis ne aukštis 28000 ft

METAR: ETHF 200820Z 13001KT 9999 BKN280 08/04 Q1030 BLU+BLU+

Laikas: 11:30 (09:30 UTC)

Prognozė

Ataskaita buvo paskelbta 2 valandos ir 15 minutes, ne 07:15 UTC
Prognozė galioja nuo 20 metu 08 UTC su 20 metu 17 UTC
Vėjas 3 kt nuo kintamojo kryptimis
Matomumas 10 km arba daugiau
Su prošvaistėmis ne aukštis 30000 ft

TAF: ETHF 200715Z 2008/2017 VRB03KT 9999 NSW BKN300

Orai ataskaitas ir orų prognozės (METAR, TAF).

turimą stotys yra geltonos ir raudonos taškus žemėlapyje.

Perkelti pele per norėdami pamatyti stoties vardą.

Tada spustelėkite, norėdami matyti oro stebėjimo ir prognozės.

Norėdami pakeisti žemėlapį: spustelėkite ant žalios mygtukų su juodo kryžiaus žemyn,; žalią mygtuką su brūkšneliu, jei norite nutolinti; arba žalių rodyklių gretimoms žemėlapius.


METAR-TAF: